Historique des mesures à Cassis (13260), France
Quotidien Résumé Juin 2, 2022 Unités:  Métrique/US    US   Métrique
Quotidien Hebdomadaire Mensuel Annuel
  Maximum: Minimum: Moyenne:
Température: 68.5 °F /  20.3 °C 56.8 °F /  13.8 °C 63 °F /  17.2 °C
Point de rosée: 61.3 °F /  16.3 °C 47.1 °F /  8.4 °C 55.2 °F /  12.9 °C
Humidité: 91% 57% 76%
Vitesse du vent: 11.9mph /  19.1km/h - 3.4mph /  5.4km/h
Rafales: 21.2mph /  34.2km/h - -
Vent- - WSW
Pression: 30.3 in /  1025.2 hPa 30.2 in /  1022.8 hPa -
Précipitations: 0.08 in /  2.0 mm    
Historical Graphs
 
 
Mesures pour : Juin 2, 2022
Heure Temperature Point de rosée Pression Vent Vitesse du vent Rafales Humidité Pluie (par heure)
00:11 61.5 °F /  16.4 °C 58.3 °F /  14.6 °C 30.3in /  1025.0hPa NNW 2.7mph /  4.3km/h 4mph /  6.5km/h 89% 0in /  0.0mm
01:10 61 °F /  16.1 °C 57.7 °F /  14.3 °C 30.3in /  1025.1hPa Calm     89% 0in /  0.0mm
02:11 61.2 °F /  16.2 °C 58.6 °F /  14.8 °C 30.3in /  1024.9hPa Calm   2mph /  3.2km/h 91% 0in /  0.0mm
03:10 60.3 °F /  15.7 °C 57.4 °F /  14.1 °C 30.2in /  1024.2hPa NNW 5.6mph /  9km/h 6.3mph /  10.1km/h 90% 0in /  0.0mm
04:11 61 °F /  16.1 °C 58.1 °F /  14.5 °C 30.2in /  1024.0hPa Calm     90% 0in /  0.0mm
05:10 60.4 °F /  15.8 °C 57.6 °F /  14.2 °C 30.2in /  1024.2hPa NW 2.9mph /  4.7km/h 6.7mph /  10.8km/h 90% 0in /  0.0mm
06:11 61 °F /  16.1 °C 58.5 °F /  14.7 °C 30.3in /  1024.4hPa Calm   2.9mph /  4.7km/h 91% 0in /  0.0mm
07:10 61.7 °F /  16.5 °C 58.8 °F /  14.9 °C 30.3in /  1024.5hPa NNW 4.7mph /  7.6km/h 11.4mph /  18.4km/h 90% 0in /  0.0mm
08:11 61.7 °F /  16.5 °C 58.5 °F /  14.7 °C 30.3in /  1025.0hPa NE 2.9mph /  4.7km/h 3.4mph /  5.4km/h 89% 0in /  0.0mm
09:10 64 °F /  17.8 °C 59.7 °F /  15.4 °C 30.3in /  1025.2hPa Calm   3.4mph /  5.4km/h 86% 0in /  0.0mm
10:11 65.7 °F /  18.7 °C 60.3 °F /  15.7 °C 30.3in /  1025.2hPa Calm   6.3mph /  10.1km/h 83% 0in /  0.0mm
11:10 67.3 °F /  19.6 °C 61.3 °F /  16.3 °C 30.3in /  1024.8hPa SSW 2.9mph /  4.7km/h 6.3mph /  10.1km/h 81% 0in /  0.0mm
12:11 68.4 °F /  20.2 °C 59 °F /  15 °C 30.3in /  1024.3hPa West 4.7mph /  7.6km/h 12.3mph /  19.8km/h 72% 0in /  0.0mm
13:10 68.5 °F /  20.3 °C 56.3 °F /  13.5 °C 30.2in /  1023.8hPa WSW 10.5mph /  16.9km/h 11.9mph /  19.1km/h 65% 0in /  0.0mm
14:11 68.5 °F /  20.3 °C 54.5 °F /  12.5 °C 30.2in /  1023.3hPa NW 11.9mph /  19.1km/h 21.2mph /  34.2km/h 61% 0in /  0.0mm
15:10 68.2 °F /  20.1 °C 55 °F /  12.8 °C 30.2in /  1022.9hPa SSW 6.5mph /  10.4km/h 10.5mph /  16.9km/h 63% 0in /  0.0mm
16:11 67.5 °F /  19.7 °C 53.1 °F /  11.7 °C 30.2in /  1022.8hPa WNW 7.4mph /  11.9km/h 8.3mph /  13.3km/h 60% 0in /  0.0mm
17:10 66.7 °F /  19.3 °C 51.1 °F /  10.6 °C 30.2in /  1022.8hPa NW 5.2mph /  8.3km/h 8.1mph /  13km/h 57% 0in /  0.0mm
18:11 63 °F /  17.2 °C 49.3 °F /  9.6 °C 30.2in /  1022.9hPa NW 3.1mph /  5km/h 7mph /  11.2km/h 61% 0in /  0.0mm
19:10 61 °F /  16.1 °C 49.1 °F /  9.5 °C 30.2in /  1023.3hPa North 3.8mph /  6.1km/h 5.3mph /  8.6km/h 65% 0.08in /  2.0mm
20:11 61 °F /  16.1 °C 48.7 °F /  9.3 °C 30.2in /  1023.2hPa Calm   3.1mph /  5km/h 64% 0in /  0.0mm
21:10 58.8 °F /  14.9 °C 47.8 °F /  8.8 °C 30.2in /  1023.4hPa Calm     67% 0in /  0.0mm
22:10 57 °F /  13.9 °C 47.3 °F /  8.5 °C 30.2in /  1023.5hPa NNE 5.2mph /  8.3km/h 5.3mph /  8.6km/h 70% 0in /  0.0mm
23:10 56.8 °F /  13.8 °C 47.1 °F /  8.4 °C 30.2in /  1023.6hPa Calm   4.9mph /  7.9km/h 70% 0in /  0.0mm
Observations météo à CASSIS
WU-History script by Weather Underground - 2 mb